Aviation Digital Data Service (ADDS)

Output produced by TAFs form (0021 UTC 27 June 2017)
found at http://www.aviationweather.gov/adds/tafs/
 
KBJC 270014Z AUTO 01003KT 10SM CLR 27/03 A3015 RMK AO2
KBJC 262320Z 2700/2724 08005KT P6SM FEW080 
     FM270100 15005KT P6SM SCT080 
     FM270300 VRB05KT P6SM SCT080 
     FM271500 25007KT P6SM SCT120 BKN200 
     FM271900 29014KT P6SM BKN120